createdAt,value
2023-03-29T00:01:43.767Z,1.38
2023-03-29T00:04:10.784Z,1.50
2023-03-29T00:06:37.698Z,3.00
2023-03-29T00:09:04.844Z,1.63
2023-03-29T00:11:31.716Z,1.20
2023-03-29T00:13:58.563Z,1.20
2023-03-29T00:16:25.569Z,1.47
2023-03-29T00:18:52.450Z,1.30
2023-03-29T00:21:19.337Z,1.15
2023-03-29T00:23:46.375Z,1.08
2023-03-29T00:26:13.230Z,1.77
2023-03-29T00:28:40.265Z,1.13
2023-03-29T00:31:13.507Z,1.73
2023-03-29T00:33:41.314Z,1.95
2023-03-29T00:36:10.924Z,1.42
2023-03-29T00:38:38.706Z,1.63
2023-03-29T00:41:06.686Z,1.17
2023-03-29T00:43:53.504Z,2.08
2023-03-29T00:46:20.455Z,1.40
2023-03-29T00:48:47.657Z,1.80
2023-03-29T00:51:17.064Z,1.42
2023-03-29T00:53:49.624Z,1.60
2023-03-29T00:56:22.090Z,1.80
2023-03-29T00:59:11.531Z,2.28
2023-03-29T01:01:50.851Z,1.77
2023-03-29T01:04:25.352Z,1.83
2023-03-29T01:07:06.072Z,1.63
2023-03-29T01:09:36.833Z,1.80
2023-03-29T01:12:11.882Z,2.03
2023-03-29T01:15:01.986Z,1.48
2023-03-29T01:17:29.181Z,2.13
2023-03-29T01:20:01.650Z,2.20
2023-03-29T01:22:36.766Z,2.00
2023-03-29T01:25:24.936Z,2.22
2023-03-29T01:28:27.161Z,2.25
2023-03-29T01:31:03.963Z,2.05
2023-03-29T01:33:45.854Z,2.20
2023-03-29T01:36:31.999Z,1.98
2023-03-29T01:39:03.556Z,2.53
2023-03-29T01:41:48.350Z,2.40
2023-03-29T01:44:44.494Z,2.08
2023-03-29T01:47:37.593Z,1.37
2023-03-29T01:50:12.130Z,2.38
2023-03-29T01:52:47.098Z,2.60
2023-03-29T01:55:20.753Z,2.00
2023-03-29T01:57:48.996Z,1.83
2023-03-29T02:00:18.780Z,1.03
2023-03-29T02:02:47.709Z,1.73
2023-03-29T02:05:16.666Z,2.10
2023-03-29T02:07:46.315Z,1.73
2023-03-29T02:10:14.760Z,2.60
2023-03-29T02:12:42.029Z,2.43
2023-03-29T02:15:15.395Z,2.45
2023-03-29T02:17:44.615Z,2.85
2023-03-29T02:20:39.461Z,2.53
2023-03-29T02:23:26.977Z,2.38
2023-03-29T02:25:55.230Z,2.67
2023-03-29T02:28:25.535Z,2.95
2023-03-29T02:30:56.312Z,2.08
2023-03-29T02:33:41.544Z,2.60
2023-03-29T02:36:14.016Z,2.50
2023-03-29T02:38:41.525Z,2.30
2023-03-29T02:41:10.719Z,1.80
2023-03-29T02:43:39.702Z,2.03
2023-03-29T02:46:08.104Z,2.50
2023-03-29T02:48:37.250Z,2.00
2023-03-29T02:51:16.327Z,1.97
2023-03-29T02:54:08.039Z,2.60
2023-03-29T02:56:58.750Z,3.38
2023-03-29T02:59:26.115Z,4.15
2023-03-29T03:01:53.140Z,3.63
2023-03-29T03:04:20.169Z,3.10
2023-03-29T03:06:47.946Z,2.92
2023-03-29T03:09:15.338Z,2.90
2023-03-29T03:11:42.384Z,2.40
2023-03-29T03:14:09.530Z,2.35
2023-03-29T03:16:36.587Z,2.50
2023-03-29T03:19:04.339Z,2.58
2023-03-29T03:21:31.330Z,2.72
2023-03-29T03:23:58.198Z,2.45
2023-03-29T03:26:25.068Z,2.22
2023-03-29T03:28:51.987Z,1.80
2023-03-29T03:31:18.812Z,2.20
2023-03-29T03:33:46.270Z,2.28
2023-03-29T03:36:13.215Z,2.83
2023-03-29T03:38:40.158Z,2.40
2023-03-29T03:41:07.334Z,1.90
2023-03-29T03:43:34.663Z,1.38
2023-03-29T03:46:02.012Z,1.67
2023-03-29T03:48:29.086Z,1.60
2023-03-29T03:50:58.401Z,1.02
2023-03-29T03:53:27.188Z,1.13
2023-03-29T03:55:55.466Z,1.45
2023-03-29T03:58:23.092Z,1.50
2023-03-29T04:00:50.796Z,1.70
2023-03-29T04:03:18.813Z,1.90
2023-03-29T04:05:46.945Z,1.40
2023-03-29T04:08:14.864Z,1.77
2023-03-29T04:10:41.955Z,2.03
2023-03-29T04:13:08.871Z,3.15
2023-03-29T04:15:38.486Z,2.20
2023-03-29T04:18:06.295Z,1.83
2023-03-29T04:20:33.285Z,2.30
2023-03-29T04:23:00.372Z,1.88
2023-03-29T04:25:27.425Z,1.95
2023-03-29T04:27:54.324Z,2.45
2023-03-29T04:30:21.243Z,3.43
2023-03-29T04:32:48.815Z,2.85
2023-03-29T04:35:15.774Z,2.33
2023-03-29T04:37:42.609Z,2.80
2023-03-29T04:40:11.040Z,3.13
2023-03-29T04:42:37.858Z,3.17
2023-03-29T04:45:05.719Z,4.63
2023-03-29T04:47:32.762Z,3.72
2023-03-29T04:49:59.701Z,3.22
2023-03-29T04:52:26.553Z,2.97
2023-03-29T04:54:53.661Z,2.90
2023-03-29T04:57:20.707Z,3.72
2023-03-29T04:59:47.584Z,2.97
2023-03-29T05:02:14.628Z,3.72
2023-03-29T05:04:41.604Z,4.15
2023-03-29T05:07:08.536Z,4.20
2023-03-29T05:09:35.620Z,4.25
2023-03-29T05:12:02.641Z,4.38
2023-03-29T05:14:29.507Z,4.20
2023-03-29T05:16:56.513Z,3.95
2023-03-29T05:19:23.944Z,4.13
2023-03-29T05:21:51.167Z,3.80
2023-03-29T05:24:18.172Z,3.50
2023-03-29T05:26:45.048Z,3.50
2023-03-29T05:29:11.954Z,3.70
2023-03-29T05:31:39.151Z,3.60
2023-03-29T05:34:06.868Z,3.75
2023-03-29T05:36:33.815Z,4.38
2023-03-29T05:39:00.835Z,4.13
2023-03-29T05:41:27.736Z,3.42
2023-03-29T05:43:54.593Z,3.40
2023-03-29T05:46:21.578Z,3.42
2023-03-29T05:48:48.477Z,3.03
2023-03-29T05:51:15.368Z,2.60
2023-03-29T05:53:42.361Z,2.65
2023-03-29T05:56:09.379Z,2.20
2023-03-29T05:58:36.213Z,2.83
2023-03-29T06:01:03.334Z,3.00
2023-03-29T06:03:30.675Z,2.30
2023-03-29T06:06:03.169Z,2.13
2023-03-29T06:08:30.702Z,2.03
2023-03-29T06:11:04.529Z,2.00
2023-03-29T06:13:33.305Z,1.85
2023-03-29T06:16:00.971Z,2.20
2023-03-29T06:18:27.864Z,2.47
2023-03-29T06:20:54.805Z,2.30
2023-03-29T06:23:22.681Z,2.55
2023-03-29T06:25:49.927Z,2.70
2023-03-29T06:28:17.323Z,3.00
2023-03-29T06:30:44.953Z,2.03
2023-03-29T06:33:12.942Z,2.77
2023-03-29T06:35:42.729Z,2.22
2023-03-29T06:38:09.918Z,2.20
2023-03-29T06:40:36.836Z,2.25
2023-03-29T06:43:04.729Z,3.00
2023-03-29T06:48:03.872Z,2.10
2023-03-29T06:50:31.484Z,2.15
2023-03-29T06:52:58.320Z,2.38
2023-03-29T06:55:25.793Z,2.85
2023-03-29T06:57:54.337Z,2.70
2023-03-29T07:00:22.134Z,3.08
2023-03-29T07:02:48.955Z,2.90
2023-03-29T07:05:16.243Z,2.35
2023-03-29T07:07:45.324Z,3.00
2023-03-29T07:10:12.423Z,2.77
2023-03-29T07:12:39.442Z,2.63
2023-03-29T07:15:06.667Z,2.53
2023-03-29T07:17:33.554Z,2.25
2023-03-29T07:20:00.588Z,3.13
2023-03-29T07:22:27.496Z,2.50
2023-03-29T07:24:54.298Z,3.20
2023-03-29T07:27:21.270Z,2.55
2023-03-29T07:29:48.144Z,2.70
2023-03-29T07:32:14.966Z,3.40
2023-03-29T07:34:42.871Z,2.60
2023-03-29T07:37:09.829Z,2.80
2023-03-29T07:39:36.656Z,2.70
2023-03-29T07:42:03.597Z,3.53
2023-03-29T07:44:30.484Z,3.38
2023-03-29T07:46:57.345Z,2.60
2023-03-29T07:49:24.444Z,2.92
2023-03-29T07:51:51.281Z,3.30
2023-03-29T07:54:18.209Z,2.78
2023-03-29T07:56:45.205Z,2.20
2023-03-29T07:59:12.127Z,3.50
2023-03-29T08:01:39.037Z,3.05
2023-03-29T08:04:06.201Z,3.28
2023-03-29T08:06:33.422Z,3.15
2023-03-29T08:09:00.327Z,2.70
2023-03-29T08:11:27.381Z,2.30
2023-03-29T08:13:54.310Z,2.13
2023-03-29T08:16:21.199Z,2.63
2023-03-29T08:18:48.177Z,1.85
2023-03-29T08:21:15.068Z,2.03
2023-03-29T08:23:41.995Z,2.50
2023-03-29T08:26:08.929Z,2.03
2023-03-29T08:28:35.886Z,2.08
2023-03-29T08:31:03.095Z,2.72
2023-03-29T08:33:30.249Z,1.83
2023-03-29T08:35:57.209Z,2.10
2023-03-29T08:38:24.187Z,2.10
2023-03-29T08:40:51.229Z,1.45
2023-03-29T08:43:23.930Z,2.35
2023-03-29T08:45:59.270Z,2.00
2023-03-29T08:48:46.064Z,1.93
2023-03-29T08:51:21.108Z,1.27
2023-03-29T08:53:57.054Z,1.80
2023-03-29T08:56:27.499Z,2.90
2023-03-29T08:58:56.881Z,2.08
2023-03-29T09:01:28.355Z,3.17
2023-03-29T09:04:14.172Z,3.40
2023-03-29T09:06:41.201Z,4.10
2023-03-29T09:09:17.534Z,3.22
2023-03-29T09:12:15.711Z,2.90
2023-03-29T09:14:57.021Z,2.43
2023-03-29T09:17:52.967Z,2.63
2023-03-29T09:20:52.881Z,2.85
2023-03-29T09:24:10.603Z,2.08
2023-03-29T09:26:41.897Z,1.85
2023-03-29T09:29:27.404Z,1.83
2023-03-29T09:31:56.061Z,1.85
2023-03-29T09:34:39.517Z,2.00
2023-03-29T09:37:16.364Z,2.25
2023-03-29T09:39:43.251Z,2.15
2023-03-29T09:42:14.000Z,2.50
2023-03-29T09:44:47.267Z,2.67
2023-03-29T09:47:55.229Z,2.75
2023-03-29T09:50:31.899Z,1.92
2023-03-29T09:52:59.504Z,2.30
2023-03-29T09:55:29.551Z,2.93
2023-03-29T09:58:05.334Z,4.05
2023-03-29T10:00:32.260Z,2.70
2023-03-29T10:02:59.282Z,2.33
2023-03-29T10:05:28.349Z,2.58
2023-03-29T10:08:00.337Z,3.23
2023-03-29T10:10:33.740Z,2.85
2023-03-29T10:13:07.240Z,3.00
2023-03-29T10:15:34.163Z,2.83
2023-03-29T10:18:11.942Z,3.10
2023-03-29T10:20:40.574Z,2.40
2023-03-29T10:23:09.369Z,1.95
2023-03-29T10:25:42.093Z,3.13
2023-03-29T10:28:18.711Z,2.70
2023-03-29T10:30:52.919Z,2.90
2023-03-29T10:33:22.450Z,2.17
2023-03-29T10:35:49.825Z,1.98
2023-03-29T10:38:19.921Z,1.65
2023-03-29T10:40:51.668Z,2.22
2023-03-29T10:43:28.873Z,1.88
2023-03-29T10:46:05.514Z,1.90
2023-03-29T10:48:35.219Z,1.25
2023-03-29T10:51:04.838Z,1.48
2023-03-29T10:53:35.191Z,2.03
2023-03-29T10:56:19.988Z,1.80
2023-03-29T10:59:01.013Z,2.57
2023-03-29T11:01:52.112Z,2.03
2023-03-29T11:04:42.906Z,1.63
2023-03-29T11:07:40.510Z,1.38
2023-03-29T11:10:26.129Z,1.23
2023-03-29T11:13:12.645Z,1.77
2023-03-29T11:16:10.718Z,1.35
2023-03-29T11:19:01.781Z,1.60
2023-03-29T11:21:54.423Z,0.90
2023-03-29T11:24:39.564Z,1.45
2023-03-29T11:27:31.462Z,0.90
2023-03-29T11:30:29.733Z,1.30
2023-03-29T11:33:14.562Z,1.45
2023-03-29T11:35:45.870Z,1.33
2023-03-29T11:38:38.451Z,1.45
2023-03-29T11:41:32.299Z,1.37
2023-03-29T11:44:06.030Z,1.00
2023-03-29T11:46:39.641Z,1.08
2023-03-29T11:49:17.141Z,1.00
2023-03-29T11:52:06.762Z,1.17
2023-03-29T11:54:42.195Z,1.90
2023-03-29T11:57:32.175Z,1.35
2023-03-29T12:00:12.474Z,1.23
2023-03-29T12:03:01.452Z,1.63
2023-03-29T12:05:46.077Z,1.00
2023-03-29T12:08:15.517Z,1.43
2023-03-29T12:10:46.417Z,1.00
2023-03-29T12:13:30.767Z,0.77
2023-03-29T12:16:03.985Z,1.02
2023-03-29T12:18:38.629Z,0.90
2023-03-29T12:21:12.042Z,1.03
2023-03-29T12:23:41.460Z,1.42
2023-03-29T12:26:26.836Z,0.85
2023-03-29T12:29:20.730Z,2.08
2023-03-29T12:32:00.848Z,1.90
2023-03-29T12:34:46.258Z,1.97
2023-03-29T12:37:44.003Z,2.35
2023-03-29T12:40:16.854Z,2.03
2023-03-29T12:42:58.811Z,1.98
2023-03-29T12:45:38.538Z,2.05
2023-03-29T12:48:07.067Z,1.07
2023-03-29T12:50:44.600Z,1.55
2023-03-29T12:53:21.193Z,1.90
2023-03-29T12:56:10.137Z,2.55
2023-03-29T12:58:40.075Z,1.20
2023-03-29T13:01:25.410Z,1.60
2023-03-29T13:04:01.891Z,1.13
2023-03-29T13:06:32.461Z,2.45
2023-03-29T13:09:21.251Z,1.65
2023-03-29T13:12:04.224Z,1.42
2023-03-29T13:14:35.660Z,2.00
2023-03-29T13:17:22.016Z,1.58
2023-03-29T13:20:12.066Z,1.70
2023-03-29T13:22:53.975Z,1.45
2023-03-29T13:25:31.916Z,1.20
2023-03-29T13:28:21.645Z,1.17
2023-03-29T13:31:06.534Z,1.67
2023-03-29T13:34:00.466Z,1.80
2023-03-29T13:36:49.239Z,2.55
2023-03-29T13:39:23.654Z,1.67
2023-03-29T13:41:53.933Z,2.27
2023-03-29T13:44:34.106Z,2.40
2023-03-29T13:47:04.363Z,2.38
2023-03-29T13:49:33.896Z,2.22
2023-03-29T13:52:19.188Z,2.95
2023-03-29T13:54:45.955Z,3.17
2023-03-29T13:57:41.300Z,2.28
2023-03-29T14:00:23.757Z,2.95
2023-03-29T14:03:00.570Z,2.17
2023-03-29T14:05:39.733Z,2.97
2023-03-29T14:08:17.183Z,2.20
2023-03-29T14:10:45.505Z,3.58
2023-03-29T14:13:18.563Z,2.30
2023-03-29T14:15:53.610Z,2.10
2023-03-29T14:18:25.669Z,2.05
2023-03-29T14:20:55.392Z,2.50
2023-03-29T14:23:28.478Z,2.88
2023-03-29T14:25:55.461Z,2.65
2023-03-29T14:28:27.879Z,2.25
2023-03-29T14:30:56.539Z,2.17
2023-03-29T14:33:31.773Z,3.27
2023-03-29T14:36:01.284Z,2.63
2023-03-29T14:38:29.566Z,2.70
2023-03-29T14:41:01.129Z,2.75
2023-03-29T14:43:29.698Z,2.80
2023-03-29T14:45:58.029Z,3.10
2023-03-29T14:48:25.853Z,2.22
2023-03-29T14:50:53.095Z,2.75
2023-03-29T14:53:22.971Z,3.10
2023-03-29T14:55:52.331Z,2.83
2023-03-29T14:58:24.400Z,3.33
2023-03-29T15:00:52.620Z,3.20
2023-03-29T15:03:21.427Z,2.80
2023-03-29T15:05:55.183Z,3.28
2023-03-29T15:08:34.707Z,3.13
2023-03-29T15:11:02.906Z,3.00
2023-03-29T15:13:30.916Z,3.55
2023-03-29T15:16:00.741Z,3.17
2023-03-29T15:18:33.521Z,3.28
2023-03-29T15:21:01.237Z,3.75
2023-03-29T15:23:39.219Z,5.03
2023-03-29T15:26:28.750Z,3.05
2023-03-29T15:29:13.228Z,3.45
2023-03-29T15:31:41.926Z,4.20
2023-03-29T15:34:14.050Z,3.40
2023-03-29T15:36:43.170Z,3.20
2023-03-29T15:39:15.736Z,3.70
2023-03-29T15:41:43.908Z,4.03
2023-03-29T15:44:11.617Z,4.53
2023-03-29T15:46:38.621Z,4.30
2023-03-29T15:49:05.527Z,3.23
2023-03-29T15:51:32.453Z,3.35
2023-03-29T15:53:59.385Z,3.15
2023-03-29T15:56:26.540Z,4.18
2023-03-29T15:58:53.394Z,4.00
2023-03-29T16:01:34.906Z,3.00
2023-03-29T16:04:06.493Z,4.25
2023-03-29T16:06:34.582Z,3.72
2023-03-29T16:09:01.654Z,2.92
2023-03-29T16:11:28.734Z,3.10
2023-03-29T16:13:56.641Z,2.80
2023-03-29T16:16:23.730Z,2.92
2023-03-29T16:18:50.757Z,3.58
2023-03-29T16:21:19.881Z,2.90
2023-03-29T16:23:47.385Z,5.22
2023-03-29T16:26:16.220Z,3.13
2023-03-29T16:28:43.554Z,3.55
2023-03-29T16:31:14.031Z,3.83
2023-03-29T16:33:41.627Z,5.40
2023-03-29T16:36:16.272Z,4.32
2023-03-29T16:38:43.137Z,4.30
2023-03-29T16:41:19.290Z,2.90
2023-03-29T16:43:46.226Z,3.75
2023-03-29T16:46:13.345Z,3.83
2023-03-29T16:48:40.345Z,3.97
2023-03-29T16:51:07.807Z,3.97
2023-03-29T16:53:34.837Z,3.65
2023-03-29T16:56:02.655Z,3.00
2023-03-29T16:58:29.851Z,3.17
2023-03-29T17:00:57.345Z,3.83
2023-03-29T17:03:24.475Z,4.23
2023-03-29T17:05:52.966Z,3.90
2023-03-29T17:08:21.285Z,4.20
2023-03-29T17:10:54.592Z,4.00
2023-03-29T17:13:23.112Z,3.53
2023-03-29T17:15:51.399Z,3.50
2023-03-29T17:18:21.393Z,3.10
2023-03-29T17:20:50.613Z,3.63
2023-03-29T17:23:17.898Z,3.72
2023-03-29T17:25:44.911Z,3.85
2023-03-29T17:28:11.889Z,3.97
2023-03-29T17:30:39.893Z,3.92
2023-03-29T17:33:06.898Z,3.92
2023-03-29T17:35:36.985Z,4.28
2023-03-29T17:38:03.982Z,3.65
2023-03-29T17:40:30.950Z,3.80
2023-03-29T17:42:57.922Z,3.80
2023-03-29T17:45:24.737Z,3.80
2023-03-29T17:47:51.706Z,3.85
2023-03-29T17:50:20.442Z,3.35
2023-03-29T17:52:47.436Z,4.67
2023-03-29T17:55:14.766Z,4.32
2023-03-29T17:57:42.464Z,3.58
2023-03-29T18:00:12.397Z,4.05
2023-03-29T18:02:40.565Z,4.65
2023-03-29T18:05:08.332Z,3.97
2023-03-29T18:07:35.823Z,4.15
2023-03-29T18:10:02.837Z,4.10
2023-03-29T18:12:29.893Z,4.03
2023-03-29T18:14:56.863Z,3.60
2023-03-29T18:17:25.400Z,3.50
2023-03-29T18:19:52.565Z,3.80
2023-03-29T18:22:19.750Z,4.70
2023-03-29T18:24:47.679Z,3.78
2023-03-29T18:27:14.595Z,4.03
2023-03-29T18:29:41.641Z,3.60
2023-03-29T18:32:08.652Z,4.43
2023-03-29T18:34:38.750Z,4.68
2023-03-29T18:37:05.903Z,4.40
2023-03-29T18:39:33.118Z,4.10
2023-03-29T18:42:00.086Z,4.57
2023-03-29T18:44:27.307Z,4.65
2023-03-29T18:46:54.394Z,4.28
2023-03-29T18:49:21.479Z,5.15
2023-03-29T18:51:48.595Z,4.72
2023-03-29T18:54:15.744Z,4.13
2023-03-29T18:56:42.806Z,5.10
2023-03-29T18:59:10.285Z,4.55
2023-03-29T19:01:40.229Z,4.95
2023-03-29T19:04:07.220Z,4.57
2023-03-29T19:06:34.273Z,4.97
2023-03-29T19:09:01.902Z,4.80
2023-03-29T19:11:29.269Z,4.45
2023-03-29T19:13:56.497Z,5.28
2023-03-29T19:16:23.609Z,5.07
2023-03-29T19:18:50.874Z,5.57
2023-03-29T19:21:18.066Z,6.10
2023-03-29T19:23:45.101Z,5.40
2023-03-29T19:26:12.154Z,5.43
2023-03-29T19:28:42.054Z,4.95
2023-03-29T19:31:09.108Z,5.40
2023-03-29T19:33:36.154Z,5.57
2023-03-29T19:36:03.412Z,4.82
2023-03-29T19:38:30.804Z,5.72
2023-03-29T19:40:57.870Z,8.32
2023-03-29T19:43:24.883Z,7.17
2023-03-29T19:45:54.965Z,6.47
2023-03-29T19:48:23.935Z,5.13
2023-03-29T19:50:52.035Z,5.72
2023-03-29T19:53:19.170Z,5.13
2023-03-29T19:55:46.473Z,4.33
2023-03-29T19:58:13.701Z,5.03
2023-03-29T20:00:40.885Z,5.05
2023-03-29T20:03:08.082Z,4.80
2023-03-29T20:05:35.854Z,4.50
2023-03-29T20:08:03.083Z,4.63
2023-03-29T20:10:30.306Z,4.35
2023-03-29T20:12:57.335Z,4.38
2023-03-29T20:15:24.665Z,4.90
2023-03-29T20:17:53.022Z,5.70
2023-03-29T20:20:21.324Z,4.67
2023-03-29T20:22:48.507Z,6.40
2023-03-29T20:25:15.809Z,4.45
2023-03-29T20:27:43.067Z,5.35
2023-03-29T20:30:11.605Z,5.47
2023-03-29T20:32:38.605Z,5.23
2023-03-29T20:35:06.175Z,5.38
2023-03-29T20:37:34.657Z,5.88
2023-03-29T20:40:01.810Z,6.72
2023-03-29T20:42:28.990Z,5.70
2023-03-29T20:44:56.598Z,8.90
2023-03-29T20:47:23.920Z,7.18
2023-03-29T20:49:50.904Z,6.05
2023-03-29T20:52:18.178Z,6.72
2023-03-29T20:54:46.119Z,5.47
2023-03-29T20:57:15.644Z,6.00
2023-03-29T20:59:44.128Z,4.90
2023-03-29T21:02:15.012Z,5.90
2023-03-29T21:04:43.712Z,6.03
2023-03-29T21:07:10.908Z,5.05
2023-03-29T21:09:38.013Z,5.40
2023-03-29T21:12:05.252Z,5.55
2023-03-29T21:14:32.459Z,6.45
2023-03-29T21:16:59.482Z,6.15
2023-03-29T21:19:26.742Z,5.10
2023-03-29T21:21:53.721Z,7.00
2023-03-29T21:24:21.653Z,5.85
2023-03-29T21:26:48.925Z,5.93
2023-03-29T21:29:16.082Z,6.95
2023-03-29T21:31:43.072Z,5.43
2023-03-29T21:34:10.069Z,6.93
2023-03-29T21:36:37.062Z,6.07
2023-03-29T21:39:04.229Z,6.05
2023-03-29T21:41:31.197Z,6.13
2023-03-29T21:43:58.200Z,6.13
2023-03-29T21:46:25.255Z,6.23
2023-03-29T21:48:52.581Z,6.38
2023-03-29T21:51:19.592Z,6.18
2023-03-29T21:53:46.539Z,5.50
2023-03-29T21:56:13.635Z,5.25
2023-03-29T21:58:40.658Z,5.10
2023-03-29T22:01:08.084Z,4.75
2023-03-29T22:03:35.147Z,5.30
2023-03-29T22:06:05.054Z,4.80
2023-03-29T22:08:32.129Z,5.88
2023-03-29T22:11:09.350Z,4.83
2023-03-29T22:13:36.858Z,5.07
2023-03-29T22:16:04.774Z,6.40
2023-03-29T22:18:37.273Z,5.45
2023-03-29T22:21:04.388Z,3.83
2023-03-29T22:23:31.544Z,4.90
2023-03-29T22:25:58.672Z,7.00
2023-03-29T22:28:25.596Z,4.68
2023-03-29T22:30:52.548Z,4.20
2023-03-29T22:33:19.643Z,3.75
2023-03-29T22:35:46.608Z,4.73
2023-03-29T22:38:13.736Z,5.65
2023-03-29T22:40:41.083Z,4.25
2023-03-29T22:43:08.032Z,4.95
2023-03-29T22:45:34.953Z,3.83
2023-03-29T22:48:02.152Z,3.87
2023-03-29T22:50:29.156Z,4.32
2023-03-29T22:52:56.087Z,4.53
2023-03-29T22:55:23.166Z,5.10
2023-03-29T22:57:50.065Z,4.78
2023-03-29T23:00:17.344Z,4.33
2023-03-29T23:02:44.495Z,5.07
2023-03-29T23:05:12.314Z,5.13
2023-03-29T23:07:39.209Z,5.15
2023-03-29T23:10:07.295Z,4.85
2023-03-29T23:12:34.647Z,5.27
2023-03-29T23:15:02.013Z,5.55
2023-03-29T23:17:29.512Z,4.70
2023-03-29T23:19:56.482Z,5.00
2023-03-29T23:22:23.491Z,5.00
2023-03-29T23:24:50.661Z,5.00
2023-03-29T23:27:17.826Z,4.18
2023-03-29T23:29:44.768Z,5.55
2023-03-29T23:32:12.567Z,4.82
2023-03-29T23:34:39.471Z,4.38
2023-03-29T23:37:06.415Z,5.23
2023-03-29T23:39:33.370Z,5.82
2023-03-29T23:42:00.343Z,3.83
2023-03-29T23:44:27.382Z,4.68
2023-03-29T23:46:54.428Z,4.85
2023-03-29T23:49:21.362Z,4.60
2023-03-29T23:51:48.620Z,5.10
2023-03-29T23:54:15.835Z,5.10
2023-03-29T23:56:43.819Z,4.43
2023-03-29T23:59:10.813Z,4.90
